Time;durP1;ratioP1;P1;durP2;ratioP2;P2;SDS_P1;SDS_P2;PMS_P1;PMS_P2;Temp;Humidity;BMP_temperature;BMP_pressure;BME280_temperature;BME280_humidity;BME280_pressure;Samples;Min_cycle;Max_cycle;Signal;HPM_P1;HPM_P2
2022/01/05 00:00:08;;;;;;;2.58;1.10;;;2.80;99.90;;;;;;5026967;28;20025;-76
2022/01/05 00:02:35;;;;;;;3.08;0.95;;;2.80;99.90;;;;;;5026680;28;20046;-76
2022/01/05 00:05:02;;;;;;;7.10;1.40;;;2.80;99.90;;;;;;5025423;28;20033;-76
2022/01/05 00:07:28;;;;;;;1.15;1.02;;;2.80;99.90;;;;;;5025602;28;20032;-74
2022/01/05 00:09:54;;;;;;;0.82;0.70;;;2.80;99.90;;;;;;5026704;28;20480;-76
2022/01/05 00:12:19;;;;;;;5.15;0.85;;;2.70;99.90;;;;;;5026393;28;20034;-74
2022/01/05 00:14:45;;;;;;;9.35;1.40;;;2.70;99.90;;;;;;5026960;28;20036;-75
2022/01/05 00:17:14;;;;;;;4.97;1.10;;;2.70;99.90;;;;;;5026376;28;20025;-74
2022/01/05 00:19:40;;;;;;;11.38;0.88;;;2.70;99.90;;;;;;5024870;28;20026;-75
2022/01/05 00:22:06;;;;;;;9.35;1.38;;;2.70;99.90;;;;;;5026475;28;20042;-75
2022/01/05 00:24:32;;;;;;;4.55;1.63;;;2.60;99.90;;;;;;5026159;28;20026;-76
2022/01/05 00:26:58;;;;;;;7.13;1.33;;;2.60;99.90;;;;;;5026556;28;20037;-75
2022/01/05 00:29:24;;;;;;;12.82;2.05;;;2.60;99.90;;;;;;5026567;28;20030;-76
2022/01/05 00:31:49;;;;;;;10.43;1.95;;;2.60;99.90;;;;;;5024606;28;21079;-74
2022/01/05 00:34:15;;;;;;;1.67;0.93;;;2.60;99.90;;;;;;5026008;28;20026;-76
2022/01/05 00:36:41;;;;;;;22.83;1.80;;;2.60;99.90;;;;;;5029171;28;20046;-75
2022/01/05 00:39:06;;;;;;;5.22;0.70;;;2.50;99.90;;;;;;5018131;28;20056;-75
2022/01/05 00:41:32;;;;;;;5.65;1.50;;;2.50;99.90;;;;;;5011138;28;20106;-77
2022/01/05 00:43:58;;;;;;;10.35;0.85;;;2.50;99.90;;;;;;5015446;28;20030;-76
2022/01/05 00:46:23;;;;;;;6.10;1.88;;;2.50;99.90;;;;;;5019091;28;20029;-74
2022/01/05 00:48:49;;;;;;;5.32;0.82;;;2.50;99.90;;;;;;5027906;28;20539;-75
2022/01/05 00:51:15;;;;;;;7.68;1.08;;;2.50;99.90;;;;;;5014205;28;20434;-75
2022/01/05 00:53:41;;;;;;;1.92;0.75;;;2.50;99.90;;;;;;5015071;28;20036;-74
2022/01/05 00:56:07;;;;;;;6.13;0.68;;;2.50;99.90;;;;;;5013404;28;20046;-74
2022/01/05 00:58:33;;;;;;;10.55;0.65;;;2.50;99.90;;;;;;5013701;28;20029;-75
2022/01/05 01:00:59;;;;;;;1.52;0.65;;;2.50;99.90;;;;;;5019924;28;20048;-74
2022/01/05 01:03:28;;;;;;;3.38;0.47;;;2.40;99.90;;;;;;5021207;28;20057;-75
2022/01/05 01:05:55;;;;;;;4.65;1.23;;;2.40;99.90;;;;;;5014088;28;20085;-76
2022/01/05 01:08:20;;;;;;;2.05;0.63;;;2.40;99.90;;;;;;5013530;28;20033;-76
2022/01/05 01:10:46;;;;;;;7.57;1.65;;;2.40;99.90;;;;;;5015325;28;20018;-74
2022/01/05 01:13:16;;;;;;;2.17;0.70;;;2.30;99.90;;;;;;5018898;28;20037;-74
2022/01/05 01:15:47;;;;;;;4.45;1.70;;;2.40;99.90;;;;;;5022032;28;20033;-75
2022/01/05 01:18:14;;;;;;;4.00;0.93;;;2.40;99.90;;;;;;5013802;28;20022;-74
2022/01/05 01:20:39;;;;;;;0.88;0.40;;;2.40;99.90;;;;;;5012306;28;20513;-75
2022/01/05 01:23:06;;;;;;;0.60;0.43;;;2.40;99.90;;;;;;5014777;28;20030;-76
2022/01/05 01:25:31;;;;;;;1.70;0.40;;;2.40;99.90;;;;;;5014643;28;20022;-77
2022/01/05 01:27:57;;;;;;;15.65;0.82;;;2.40;99.90;;;;;;5024089;28;20098;-74
2022/01/05 01:30:23;;;;;;;1.40;1.10;;;2.40;99.90;;;;;;5023928;28;20107;-75
2022/01/05 01:32:48;;;;;;;1.05;0.50;;;2.40;99.90;;;;;;5023992;28;20512;-76
2022/01/05 01:35:14;;;;;;;5.28;0.70;;;2.40;99.90;;;;;;5025085;28;20038;-75
2022/01/05 01:37:42;;;;;;;3.50;1.73;;;2.40;99.90;;;;;;5024401;28;20034;-76
2022/01/05 01:40:09;;;;;;;3.17;0.95;;;2.50;99.90;;;;;;5023882;28;20034;-75
2022/01/05 01:42:35;;;;;;;7.25;0.85;;;2.30;99.90;;;;;;5024992;28;20040;-73
2022/01/05 01:45:02;;;;;;;6.07;1.30;;;2.40;99.90;;;;;;5023820;28;20045;-72
2022/01/05 01:47:28;;;;;;;11.25;0.90;;;2.30;99.90;;;;;;5025171;28;20032;-73
2022/01/05 01:49:53;;;;;;;5.00;0.98;;;2.30;99.90;;;;;;5023046;28;20073;-76
2022/01/05 01:52:20;;;;;;;4.13;1.48;;;2.30;99.90;;;;;;5023646;28;20021;-73
2022/01/05 01:54:46;;;;;;;7.15;0.70;;;2.30;99.90;;;;;;5025046;28;20032;-75
2022/01/05 01:57:12;;;;;;;6.32;0.75;;;2.30;99.90;;;;;;5023302;28;20033;-74
2022/01/05 01:59:39;;;;;;;0.95;0.75;;;2.30;99.90;;;;;;5023655;28;20030;-74
2022/01/05 02:02:06;;;;;;;1.77;0.65;;;2.30;99.90;;;;;;5024818;28;20045;-75
2022/01/05 02:04:34;;;;;;;7.68;0.80;;;2.30;99.90;;;;;;5024775;28;20548;-74
2022/01/05 02:07:00;;;;;;;1.23;0.55;;;2.30;99.90;;;;;;5023733;28;20029;-74
2022/01/05 02:09:27;;;;;;;1.42;0.40;;;2.30;99.90;;;;;;5025030;28;20474;-75
2022/01/05 02:11:53;;;;;;;2.88;0.50;;;2.30;99.90;;;;;;5023108;28;20085;-76
2022/01/05 02:14:18;;;;;;;3.15;0.93;;;2.30;99.90;;;;;;5024842;28;20034;-78
2022/01/05 02:16:45;;;;;;;6.32;1.67;;;2.30;99.90;;;;;;5024624;28;20064;-75
2022/01/05 02:19:12;;;;;;;5.50;0.95;;;2.30;99.90;;;;;;5024186;28;20018;-76
2022/01/05 02:21:39;;;;;;;3.20;0.93;;;2.30;99.90;;;;;;5024760;28;20394;-74
2022/01/05 02:24:07;;;;;;;3.75;1.05;;;2.30;99.90;;;;;;5023367;28;20057;-76
2022/01/05 02:26:34;;;;;;;14.15;1.20;;;2.30;99.90;;;;;;5024760;28;20018;-74
2022/01/05 02:28:59;;;;;;;4.50;0.40;;;2.30;99.90;;;;;;5024916;28;20033;-73
2022/01/05 02:31:26;;;;;;;5.15;0.45;;;2.30;99.90;;;;;;5024737;28;20494;-75
2022/01/05 02:33:52;;;;;;;0.90;0.30;;;2.50;99.90;;;;;;5024256;28;20060;-77
2022/01/05 02:36:24;;;;;;;4.38;0.47;;;2.40;99.90;;;;;;5024596;28;20030;-74
2022/01/05 02:38:52;;;;;;;3.75;0.30;;;2.40;99.90;;;;;;5023141;28;20026;-74
2022/01/05 02:41:18;;;;;;;1.50;0.82;;;2.40;99.90;;;;;;5024176;28;20089;-77
2022/01/05 02:43:45;;;;;;;6.03;0.77;;;2.40;99.90;;;;;;5024508;28;20037;-74
2022/01/05 02:46:13;;;;;;;0.55;0.40;;;2.40;99.90;;;;;;5024122;28;20022;-74
2022/01/05 02:48:39;;;;;;;2.78;0.95;;;2.40;99.90;;;;;;5023012;28;20030;-74
2022/01/05 02:51:06;;;;;;;6.03;0.68;;;2.40;99.90;;;;;;5025677;28;20053;-75
2022/01/05 02:53:33;;;;;;;8.32;2.13;;;2.40;99.90;;;;;;5026498;28;20026;-76
2022/01/05 02:55:58;;;;;;;2.00;1.08;;;2.40;99.90;;;;;;5028383;28;20033;-75
2022/01/05 02:58:24;;;;;;;1.75;0.30;;;2.40;99.90;;;;;;5026679;28;20053;-75
2022/01/05 03:00:49;;;;;;;1.83;0.63;;;2.40;99.90;;;;;;5027730;28;20468;-75
2022/01/05 03:03:15;;;;;;;2.60;0.73;;;2.40;99.90;;;;;;5027839;28;20038;-73
2022/01/05 03:05:41;;;;;;;5.63;0.50;;;2.40;99.90;;;;;;5026518;28;20105;-75
2022/01/05 03:08:06;;;;;;;1.23;0.75;;;2.30;99.90;;;;;;5026340;28;20018;-76
2022/01/05 03:10:32;;;;;;;4.95;1.65;;;2.40;99.90;;;;;;5027859;28;20029;-75
2022/01/05 03:12:57;;;;;;;10.30;1.42;;;2.40;99.90;;;;;;5027652;28;20022;-76
2022/01/05 03:15:23;;;;;;;2.05;0.80;;;2.40;99.90;;;;;;5027618;28;20030;-76
2022/01/05 03:17:49;;;;;;;1.83;1.02;;;2.40;99.90;;;;;;5026379;28;20038;-76
2022/01/05 03:20:17;;;;;;;6.43;1.33;;;2.40;99.90;;;;;;5027351;28;20038;-75
2022/01/05 03:22:43;;;;;;;10.75;1.27;;;2.40;99.90;;;;;;5026018;28;20042;-74
2022/01/05 03:25:16;;;;;;;4.43;0.82;;;2.40;99.90;;;;;;5026355;28;20025;-74
2022/01/05 03:27:49;;;;;;;9.60;1.15;;;2.40;99.90;;;;;;5027316;28;20046;-74
2022/01/05 03:30:18;;;;;;;6.32;1.65;;;2.40;99.90;;;;;;5027401;28;20037;-74
2022/01/05 03:33:08;;;;;;;5.72;1.23;;;2.40;99.90;;;;;;5027289;28;20038;-73
2022/01/05 03:35:45;;;;;;;7.57;1.00;;;2.40;99.90;;;;;;5027033;28;20038;-76
2022/01/05 03:38:11;;;;;;;12.88;1.05;;;2.40;99.90;;;;;;5027428;28;20037;-73
2022/01/05 03:40:37;;;;;;;0.77;0.65;;;2.30;99.90;;;;;;5026131;28;20646;-74
2022/01/05 03:43:05;;;;;;;1.08;0.50;;;2.30;99.90;;;;;;5027016;28;20033;-75
2022/01/05 03:45:31;;;;;;;2.75;0.60;;;2.30;99.90;;;;;;5027436;28;20086;-75
2022/01/05 03:47:57;;;;;;;0.73;0.50;;;2.30;99.90;;;;;;5025769;28;20168;-74
2022/01/05 03:50:23;;;;;;;3.75;0.68;;;2.30;99.90;;;;;;5026411;28;20046;-71
2022/01/05 03:52:48;;;;;;;4.75;0.70;;;2.30;99.90;;;;;;5027085;28;20033;-73
2022/01/05 03:55:14;;;;;;;1.67;0.70;;;2.30;99.90;;;;;;5027052;28;20108;-73
2022/01/05 03:57:39;;;;;;;8.18;1.17;;;2.30;99.90;;;;;;5026588;28;20030;-74
2022/01/05 04:00:06;;;;;;;3.92;0.98;;;2.30;99.90;;;;;;5026869;28;20030;-75
2022/01/05 04:02:32;;;;;;;3.13;0.93;;;2.30;99.90;;;;;;5026152;28;20054;-75
2022/01/05 04:05:01;;;;;;;6.13;1.25;;;2.30;99.90;;;;;;5026893;28;20030;-75
2022/01/05 04:07:26;;;;;;;9.05;2.03;;;2.30;99.90;;;;;;5027042;28;20022;-75
2022/01/05 04:09:52;;;;;;;28.83;1.33;;;2.30;99.90;;;;;;5026252;28;20474;-74
2022/01/05 04:12:17;;;;;;;6.03;1.33;;;2.30;99.90;;;;;;5026794;28;20085;-75
2022/01/05 04:14:43;;;;;;;1.38;0.63;;;2.30;99.90;;;;;;5025473;28;20026;-76
2022/01/05 04:17:09;;;;;;;2.58;0.75;;;2.30;99.90;;;;;;5025947;28;20029;-76
2022/01/05 04:19:35;;;;;;;1.02;0.68;;;2.40;99.90;;;;;;5025406;28;20025;-75
2022/01/05 04:22:01;;;;;;;0.70;0.57;;;2.40;99.90;;;;;;5025259;28;20038;-74
2022/01/05 04:24:27;;;;;;;1.23;0.40;;;2.40;99.90;;;;;;5026301;28;20042;-73
2022/01/05 04:26:52;;;;;;;4.22;1.02;;;2.50;99.90;;;;;;5026608;28;20084;-74
2022/01/05 04:29:18;;;;;;;4.78;0.95;;;2.50;99.90;;;;;;5026396;28;20116;-75
2022/01/05 04:31:45;;;;;;;6.50;1.15;;;2.50;99.90;;;;;;5026038;28;20033;-73
2022/01/05 04:34:11;;;;;;;10.15;1.48;;;2.50;99.90;;;;;;5026129;28;20061;-74
2022/01/05 04:36:37;;;;;;;0.73;0.40;;;2.50;99.90;;;;;;5024698;28;20030;-76
2022/01/05 04:39:03;;;;;;;3.80;1.05;;;2.50;99.90;;;;;;5025063;28;20474;-73
2022/01/05 04:41:29;;;;;;;0.80;0.47;;;2.50;99.90;;;;;;5026215;28;20128;-77
2022/01/05 04:44:02;;;;;;;2.65;0.60;;;2.60;99.90;;;;;;5025721;28;20406;-76
2022/01/05 04:46:27;;;;;;;18.40;1.63;;;2.60;99.90;;;;;;5026289;28;20029;-75
2022/01/05 04:48:53;;;;;;;6.85;1.45;;;2.60;99.90;;;;;;5025854;28;20525;-75
2022/01/05 04:51:18;;;;;;;7.95;1.45;;;2.60;99.90;;;;;;5025328;28;20080;-75
2022/01/05 04:53:44;;;;;;;8.45;1.05;;;2.60;99.90;;;;;;5025937;28;20489;-75
2022/01/05 04:56:09;;;;;;;4.70;0.90;;;2.70;99.90;;;;;;5024370;28;20081;-74
2022/01/05 04:58:35;;;;;;;9.02;0.77;;;2.70;99.90;;;;;;5026121;28;20038;-72
2022/01/05 05:01:01;;;;;;;5.03;0.88;;;2.70;99.90;;;;;;5025768;28;20080;-73
2022/01/05 05:03:26;;;;;;;2.67;0.65;;;2.70;99.90;;;;;;5025470;28;20086;-73
2022/01/05 05:05:52;;;;;;;4.85;0.80;;;2.70;99.90;;;;;;5025693;28;20077;-73
2022/01/05 05:08:17;;;;;;;10.75;1.02;;;2.70;99.90;;;;;;5024547;28;20026;-73
2022/01/05 05:10:43;;;;;;;5.43;1.02;;;2.70;99.90;;;;;;5023801;28;20033;-72
2022/01/05 05:13:10;;;;;;;15.23;1.42;;;2.80;99.90;;;;;;5024825;28;20108;-73
2022/01/05 05:15:37;;;;;;;1.90;0.50;;;2.80;99.90;;;;;;5025802;28;20022;-73
2022/01/05 05:18:03;;;;;;;3.22;1.20;;;2.80;99.90;;;;;;5023958;28;20037;-72
2022/01/05 05:20:28;;;;;;;4.80;1.83;;;2.80;99.90;;;;;;5025543;28;20022;-75
2022/01/05 05:22:54;;;;;;;2.92;0.55;;;2.80;99.90;;;;;;5024100;28;20034;-74
2022/01/05 05:25:20;;;;;;;3.95;0.98;;;2.80;99.90;;;;;;5025102;28;20100;-73
2022/01/05 05:27:45;;;;;;;1.23;0.68;;;2.80;99.90;;;;;;5024012;28;20065;-76
2022/01/05 05:30:11;;;;;;;7.28;1.60;;;2.80;99.90;;;;;;5025379;28;20030;-75
2022/01/05 05:32:37;;;;;;;4.90;1.70;;;2.90;99.90;;;;;;5024994;28;20026;-73
2022/01/05 05:35:05;;;;;;;4.93;1.27;;;2.80;99.90;;;;;;5025274;28;20026;-75
2022/01/05 05:37:31;;;;;;;3.90;0.75;;;2.80;99.90;;;;;;5025444;28;20033;-75
2022/01/05 05:39:57;;;;;;;3.72;1.90;;;2.80;99.90;;;;;;5024738;28;20041;-72
2022/01/05 05:42:22;;;;;;;3.45;1.27;;;2.80;99.90;;;;;;5025040;28;20101;-73
2022/01/05 05:44:48;;;;;;;10.90;1.48;;;2.90;99.90;;;;;;5025037;28;20060;-73
2022/01/05 05:47:14;;;;;;;7.50;2.05;;;2.80;99.90;;;;;;5024613;28;20026;-74
2022/01/05 05:49:39;;;;;;;9.82;1.40;;;2.80;99.90;;;;;;5023527;28;20033;-75
2022/01/05 05:52:05;;;;;;;12.00;2.50;;;2.80;99.90;;;;;;5025102;28;20045;-72
2022/01/05 05:54:31;;;;;;;5.95;1.50;;;2.80;99.90;;;;;;5025155;28;20038;-75
2022/01/05 05:56:56;;;;;;;2.05;0.98;;;2.80;99.90;;;;;;5025193;28;20037;-72
2022/01/05 05:59:22;;;;;;;3.67;1.08;;;2.80;99.90;;;;;;5023624;28;20065;-74
2022/01/05 06:01:47;;;;;;;3.25;0.80;;;2.80;99.90;;;;;;5024394;28;20034;-74
2022/01/05 06:04:13;;;;;;;1.45;0.55;;;2.80;99.90;;;;;;5023493;28;20117;-72
2022/01/05 06:06:39;;;;;;;1.88;0.93;;;2.70;99.90;;;;;;5024901;28;20453;-73
2022/01/05 06:09:04;;;;;;;3.38;0.65;;;2.70;99.90;;;;;;5024536;28;20107;-74
2022/01/05 06:11:30;;;;;;;9.80;1.08;;;2.70;99.90;;;;;;5023656;28;20037;-74
2022/01/05 06:13:55;;;;;;;8.60;0.98;;;2.70;99.90;;;;;;5024836;28;20026;-71
2022/01/05 06:16:22;;;;;;;5.22;1.80;;;2.70;99.90;;;;;;5024476;28;20034;-75
2022/01/05 06:18:48;;;;;;;6.93;1.02;;;2.70;99.90;;;;;;5024722;28;20018;-76
2022/01/05 06:21:13;;;;;;;7.85;1.33;;;2.70;99.90;;;;;;5024235;28;20038;-73
2022/01/05 06:23:39;;;;;;;5.63;0.73;;;2.80;99.90;;;;;;5024979;28;20056;-75
2022/01/05 06:26:05;;;;;;;7.60;0.90;;;2.80;99.90;;;;;;5029003;28;20022;-74
2022/01/05 06:28:31;;;;;;;10.73;1.98;;;2.80;99.90;;;;;;5028448;28;20029;-73
2022/01/05 06:30:56;;;;;;;12.23;2.15;;;2.80;99.90;;;;;;5028642;28;20040;-74
2022/01/05 06:33:22;;;;;;;0.60;0.17;;;2.90;99.90;;;;;;5028517;28;20026;-74
2022/01/05 06:35:48;;;;;;;2.28;0.88;;;2.80;99.90;;;;;;5028241;28;20061;-72
2022/01/05 06:38:13;;;;;;;7.28;1.40;;;2.90;99.90;;;;;;5028424;28;20086;-77
2022/01/05 06:40:39;;;;;;;9.68;0.75;;;2.90;99.90;;;;;;5027130;28;20033;-75
2022/01/05 06:43:05;;;;;;;22.63;1.65;;;2.90;99.90;;;;;;5026778;28;20517;-75
2022/01/05 06:45:30;;;;;;;3.30;0.80;;;3.00;99.90;;;;;;5028625;28;20037;-73
2022/01/05 06:47:58;;;;;;;4.00;0.68;;;3.00;99.90;;;;;;5028153;28;20109;-74
2022/01/05 06:50:25;;;;;;;1.63;0.93;;;3.00;99.90;;;;;;5027691;28;20092;-74
2022/01/05 06:52:50;;;;;;;4.18;0.65;;;3.00;99.90;;;;;;5028277;28;20029;-75
2022/01/05 06:55:16;;;;;;;10.90;1.45;;;3.00;99.90;;;;;;5028124;28;20038;-75
2022/01/05 06:57:42;;;;;;;2.28;1.00;;;3.10;99.90;;;;;;5027708;28;20568;-75
2022/01/05 07:00:10;;;;;;;1.77;0.82;;;3.20;99.90;;;;;;5026849;28;20029;-76
2022/01/05 07:02:36;;;;;;;2.33;1.08;;;3.20;99.90;;;;;;5027716;28;20049;-80
2022/01/05 07:05:12;;;;;;;3.47;1.77;;;3.30;99.90;;;;;;5026381;28;20030;-75
2022/01/05 07:07:38;;;;;;;1.40;0.73;;;3.20;99.90;;;;;;5026904;28;20037;-77
2022/01/05 07:10:05;;;;;;;3.90;1.20;;;3.30;99.90;;;;;;5027779;28;20037;-74
2022/01/05 07:12:33;;;;;;;7.20;1.42;;;3.30;99.90;;;;;;5027705;28;20033;-74
2022/01/05 07:14:58;;;;;;;4.45;1.42;;;3.40;99.90;;;;;;5026806;28;20053;-74
2022/01/05 07:17:24;;;;;;;5.55;1.05;;;3.30;99.90;;;;;;5025994;28;20030;-75
2022/01/05 07:19:50;;;;;;;3.03;1.00;;;3.40;99.90;;;;;;5026022;28;20033;-74
2022/01/05 07:22:16;;;;;;;1.65;0.52;;;3.40;99.90;;;;;;5011323;28;20050;-73
2022/01/05 07:24:41;;;;;;;11.45;1.20;;;3.40;99.90;;;;;;5010920;28;20030;-77
2022/01/05 07:27:07;;;;;;;5.47;1.15;;;3.40;99.90;;;;;;5015362;28;20030;-76
2022/01/05 07:29:33;;;;;;;6.53;1.13;;;3.40;99.90;;;;;;5015373;28;20029;-75
2022/01/05 07:31:58;;;;;;;4.95;0.95;;;3.40;99.90;;;;;;5019993;28;20030;-77
2022/01/05 07:34:24;;;;;;;1.85;1.05;;;3.30;99.90;;;;;;5027446;28;20040;-78
2022/01/05 07:36:49;;;;;;;6.40;1.05;;;3.30;99.90;;;;;;5030164;28;20116;-75
2022/01/05 07:39:15;;;;;;;2.05;0.98;;;3.30;99.90;;;;;;5025629;28;20041;-74
2022/01/05 07:41:40;;;;;;;7.15;1.27;;;3.20;99.90;;;;;;5039219;28;20046;-75
2022/01/05 07:44:06;;;;;;;2.53;0.77;;;3.20;99.90;;;;;;5025620;28;20032;-79
2022/01/05 07:46:34;;;;;;;7.07;1.90;;;3.20;99.90;;;;;;5026964;28;20430;-77
2022/01/05 07:49:02;;;;;;;3.28;0.90;;;3.10;99.90;;;;;;5027412;28;20086;-76
2022/01/05 07:51:28;;;;;;;6.10;0.82;;;3.10;99.90;;;;;;5018092;28;20077;-75
2022/01/05 07:53:54;;;;;;;2.22;1.10;;;3.10;99.90;;;;;;5026042;28;20029;-81
2022/01/05 07:56:19;;;;;;;8.88;1.95;;;3.00;99.90;;;;;;5035306;28;20030;-80
2022/01/05 07:58:45;;;;;;;7.75;0.43;;;2.90;99.90;;;;;;5026038;28;20052;-75
2022/01/05 08:01:11;;;;;;;8.65;1.60;;;2.90;99.90;;;;;;5026186;28;20093;-75
2022/01/05 08:03:37;;;;;;;0.63;0.45;;;2.80;99.90;;;;;;5013102;28;20026;-81
2022/01/05 08:06:04;;;;;;;7.53;2.05;;;2.80;99.90;;;;;;5007002;28;20030;-80
2022/01/05 08:08:31;;;;;;;4.97;1.63;;;2.80;99.90;;;;;;5005825;28;20026;-79
2022/01/05 08:11:00;;;;;;;4.65;2.03;;;2.70;99.90;;;;;;5019753;28;20057;-79
2022/01/05 08:13:26;;;;;;;4.63;1.08;;;2.80;99.90;;;;;;5022241;28;20058;-75
2022/01/05 08:15:52;;;;;;;12.48;2.35;;;2.80;99.90;;;;;;5005256;28;20038;-80
2022/01/05 08:18:18;;;;;;;5.00;1.70;;;2.80;99.90;;;;;;5005638;28;20057;-77
2022/01/05 08:20:46;;;;;;;11.70;2.25;;;2.80;99.90;;;;;;5021860;28;20029;-81
2022/01/05 08:23:20;;;;;;;4.82;1.23;;;2.80;99.90;;;;;;5024433;28;20045;-80
2022/01/05 08:25:46;;;;;;;7.00;2.58;;;2.70;99.90;;;;;;5024381;28;20121;-79
2022/01/05 08:28:14;;;;;;;7.28;1.45;;;2.80;99.90;;;;;;5020122;28;20034;-79
2022/01/05 08:30:40;;;;;;;10.68;1.50;;;2.70;99.90;;;;;;5037386;28;20039;-80
2022/01/05 08:33:07;;;;;;;6.28;1.33;;;2.70;99.90;;;;;;5018711;28;20057;-78
2022/01/05 08:35:33;;;;;;;12.75;2.45;;;2.70;99.90;;;;;;5024529;28;20125;-77
2022/01/05 08:38:05;;;;;;;6.45;1.60;;;2.70;99.90;;;;;;5026566;28;20060;-82
2022/01/05 08:40:40;;;;;;;2.45;1.30;;;2.70;99.90;;;;;;5024483;28;20022;-81
2022/01/05 08:43:06;;;;;;;;;;;2.70;99.90;;;;;;5026407;28;20030;-78
2022/01/05 08:45:32;;;;;;;3.72;1.45;;;2.70;99.90;;;;;;5026381;28;19905;-79
2022/01/05 08:47:59;;;;;;;4.07;1.40;;;2.90;99.90;;;;;;5025690;28;20037;-80
2022/01/05 08:50:27;;;;;;;3.33;1.33;;;2.80;99.90;;;;;;5025685;28;20064;-76
2022/01/05 08:53:01;;;;;;;11.55;1.20;;;2.90;99.90;;;;;;5017493;28;20034;-76
2022/01/05 08:55:30;;;;;;;8.50;1.92;;;2.90;99.90;;;;;;5006063;28;20442;-76
2022/01/05 08:58:09;;;;;;;3.65;1.25;;;2.90;99.90;;;;;;5006165;28;20030;-82
2022/01/05 09:00:36;;;;;;;6.88;1.35;;;3.00;99.90;;;;;;5019193;28;20045;-76
2022/01/05 09:03:04;;;;;;;2.55;1.83;;;3.00;99.90;;;;;;5014156;28;20041;-76
2022/01/05 09:05:30;;;;;;;3.65;1.83;;;3.00;99.90;;;;;;5025778;28;20113;-76
2022/01/05 09:07:55;;;;;;;5.35;1.75;;;3.10;99.90;;;;;;5021519;28;20034;-79
2022/01/05 09:10:21;;;;;;;10.75;2.08;;;3.10;99.90;;;;;;5013845;28;20110;-74
2022/01/05 09:12:47;;;;;;;4.97;1.60;;;3.10;99.90;;;;;;5013871;28;20026;-80
2022/01/05 09:15:12;;;;;;;9.90;1.98;;;3.20;99.90;;;;;;5019156;28;20033;-74
2022/01/05 09:17:38;;;;;;;9.23;1.85;;;3.20;99.90;;;;;;5005084;28;20066;-79
2022/01/05 09:20:05;;;;;;;2.33;1.40;;;3.20;99.90;;;;;;5016039;28;20037;-78
2022/01/05 09:22:31;;;;;;;4.03;1.85;;;3.30;99.90;;;;;;5024133;28;20105;-76
2022/01/05 09:24:56;;;;;;;2.33;1.13;;;3.30;99.90;;;;;;5021164;28;20123;-77
2022/01/05 09:27:22;;;;;;;7.10;1.77;;;3.30;99.90;;;;;;5014845;28;20034;-78
2022/01/05 09:29:49;;;;;;;2.97;1.83;;;3.30;99.90;;;;;;5022490;28;20049;-78
2022/01/05 09:32:15;;;;;;;12.85;1.88;;;3.30;99.90;;;;;;5024663;28;20405;-78
2022/01/05 09:34:41;;;;;;;5.90;1.15;;;3.40;99.90;;;;;;5022873;28;20031;-76
2022/01/05 09:37:33;;;;;;;3.15;2.10;;;3.40;99.90;;;;;;5009050;28;20030;-78
2022/01/05 09:42:40;;;;;;;3.75;1.50;;;3.40;99.90;;;;;;5024606;28;20053;-76
2022/01/05 09:45:15;;;;;;;3.30;1.40;;;3.50;99.90;;;;;;5023685;28;20029;-79
2022/01/05 09:47:54;;;;;;;3.75;1.58;;;3.50;99.90;;;;;;5021887;28;20030;-79
2022/01/05 09:50:21;;;;;;;3.60;1.83;;;3.50;99.90;;;;;;5017066;28;20046;-76
2022/01/05 09:52:47;;;;;;;5.22;1.67;;;3.50;99.90;;;;;;5018255;28;20066;-76
2022/01/05 09:55:15;;;;;;;3.05;1.23;;;3.50;99.90;;;;;;5002317;28;20030;-79
2022/01/05 09:57:46;;;;;;;3.00;1.52;;;3.50;99.90;;;;;;5005028;28;20046;-82
2022/01/05 10:00:15;;;;;;;2.45;1.30;;;3.70;99.90;;;;;;5043374;28;20557;-77
2022/01/05 10:02:42;;;;;;;2.50;1.42;;;3.70;99.90;;;;;;5042373;28;20072;-78
2022/01/05 10:05:14;;;;;;;4.80;1.15;;;3.70;99.90;;;;;;5040538;28;20033;-78
2022/01/05 10:07:41;;;;;;;5.30;1.10;;;3.80;99.90;;;;;;5024135;28;20494;-80
2022/01/05 10:10:08;;;;;;;6.88;1.27;;;3.80;99.90;;;;;;5022717;28;20026;-77
2022/01/05 10:12:34;;;;;;;4.10;1.38;;;3.70;99.90;;;;;;5035198;28;20432;-80
2022/01/05 10:14:59;;;;;;;4.22;0.82;;;3.70;99.90;;;;;;5044185;28;20081;-78
2022/01/05 10:17:30;;;;;;;1.55;0.73;;;3.50;99.90;;;;;;5037171;28;20129;-79
2022/01/05 10:20:08;;;;;;;2.33;1.10;;;3.40;99.90;;;;;;5022819;28;20045;-78
2022/01/05 10:22:36;;;;;;;1.73;0.77;;;3.30;99.90;;;;;;5013713;28;20046;-78
2022/01/05 10:25:13;;;;;;;3.78;1.23;;;3.20;99.90;;;;;;5022866;28;20041;-78
2022/01/05 10:27:39;;;;;;;1.52;0.70;;;3.20;99.90;;;;;;5023596;28;20030;-77
2022/01/05 10:30:14;;;;;;;1.80;0.88;;;3.20;99.90;;;;;;5023308;28;20065;-75
2022/01/05 10:32:44;;;;;;;1.80;0.85;;;3.10;99.90;;;;;;5018791;28;20062;-78
2022/01/05 10:35:20;;;;;;;1.25;0.60;;;3.10;99.90;;;;;;5005138;28;20030;-76
2022/01/05 10:37:55;;;;;;;3.30;0.70;;;3.10;99.90;;;;;;5023021;28;20128;-77
2022/01/05 10:40:22;;;;;;;1.73;1.15;;;3.10;99.90;;;;;;5022725;28;20045;-75
2022/01/05 10:42:50;;;;;;;2.65;0.80;;;3.00;99.90;;;;;;5023679;28;20030;-76
2022/01/05 10:45:46;;;;;;;0.85;0.50;;;3.00;99.90;;;;;;5024261;28;20076;-78
2022/01/05 10:48:14;;;;;;;4.55;0.73;;;3.00;99.90;;;;;;5019093;28;20072;-76
2022/01/05 10:50:41;;;;;;;1.40;1.10;;;2.90;99.90;;;;;;5031496;28;20053;-78
2022/01/05 10:53:08;;;;;;;4.22;0.80;;;2.90;99.90;;;;;;5019882;28;20029;-76
2022/01/05 10:55:41;;;;;;;0.82;0.52;;;2.80;99.90;;;;;;5003645;28;20220;-77
2022/01/05 10:58:10;;;;;;;1.38;0.55;;;2.80;99.90;;;;;;5004589;28;20037;-76
2022/01/05 11:00:39;;;;;;;5.45;1.20;;;2.70;99.90;;;;;;5017851;28;20018;-76
2022/01/05 11:03:35;;;;;;;0.80;0.70;;;2.70;99.90;;;;;;5021755;28;20453;-75
2022/01/05 11:06:13;;;;;;;3.10;1.25;;;2.60;99.90;;;;;;5008509;28;20018;-77
2022/01/05 11:08:52;;;;;;;1.55;0.73;;;2.60;99.90;;;;;;5022109;28;20030;-78
2022/01/05 11:11:38;;;;;;;2.65;0.80;;;2.70;99.90;;;;;;5023953;28;20041;-77
2022/01/05 11:14:17;;;;;;;1.42;1.00;;;3.10;99.90;;;;;;5025198;28;20026;-76
2022/01/05 11:16:46;;;;;;;1.88;0.68;;;3.70;99.90;;;;;;5018822;28;20096;-76
2022/01/05 11:19:24;;;;;;;2.83;0.60;;;4.10;99.90;;;;;;5025232;28;20057;-76
2022/01/05 11:22:09;;;;;;;4.35;1.05;;;4.30;99.90;;;;;;5010665;28;20395;-77
2022/01/05 11:24:58;;;;;;;1.73;0.77;;;5.00;99.90;;;;;;5012462;28;20057;-78
2022/01/05 11:27:29;;;;;;;1.17;0.82;;;5.20;99.90;;;;;;5025827;28;20041;-75
2022/01/05 11:29:56;;;;;;;1.40;0.68;;;5.00;99.90;;;;;;5025393;28;20037;-78
2022/01/05 11:32:27;;;;;;;2.80;1.42;;;4.70;99.90;;;;;;5011669;28;20030;-75
2022/01/05 11:34:53;;;;;;;11.63;1.30;;;4.40;99.90;;;;;;5006895;28;20026;-76
2022/01/05 11:37:19;;;;;;;3.42;1.10;;;4.30;99.90;;;;;;5005953;28;20495;-74
2022/01/05 11:39:50;;;;;;;1.90;1.05;;;4.20;99.90;;;;;;5007499;28;20065;-75
2022/01/05 11:42:23;;;;;;;1.48;0.82;;;4.40;99.90;;;;;;5019810;28;20069;-75
2022/01/05 11:44:51;;;;;;;2.67;1.00;;;5.10;99.90;;;;;;5026806;28;20032;-76
2022/01/05 11:47:23;;;;;;;2.92;1.00;;;5.60;99.90;;;;;;5026346;28;20053;-76
2022/01/05 11:49:53;;;;;;;7.07;1.85;;;5.90;99.90;;;;;;5025205;28;20089;-75
2022/01/05 11:52:39;;;;;;;2.22;0.75;;;5.70;99.90;;;;;;5026328;28;20029;-75
2022/01/05 11:55:05;;;;;;;7.53;1.23;;;5.40;99.90;;;;;;5024850;28;20033;-76
2022/01/05 11:57:31;;;;;;;4.95;1.10;;;5.20;99.90;;;;;;5025040;28;20026;-74
2022/01/05 12:00:19;;;;;;;4.38;1.30;;;5.00;99.90;;;;;;5026548;28;20053;-76
2022/01/05 12:02:44;;;;;;;1.88;1.13;;;4.90;99.90;;;;;;5026249;28;20034;-75
2022/01/05 12:05:10;;;;;;;3.78;1.67;;;4.80;99.90;;;;;;5026242;28;20034;-76
2022/01/05 12:07:39;;;;;;;1.10;0.60;;;4.80;99.90;;;;;;5026643;28;20086;-76
2022/01/05 12:10:20;;;;;;;1.95;1.17;;;4.90;99.90;;;;;;5021163;28;20093;-75
2022/01/05 12:12:52;;;;;;;2.75;1.55;;;5.00;99.90;;;;;;5011114;28;20042;-75
2022/01/05 12:15:51;;;;;;;3.20;0.95;;;5.00;99.90;;;;;;5019728;28;20034;-74
2022/01/05 12:18:23;;;;;;;4.28;0.77;;;5.20;99.90;;;;;;5014133;28;20065;-76
2022/01/05 12:20:50;;;;;;;4.97;1.80;;;5.50;99.90;;;;;;5021347;28;20065;-74
2022/01/05 12:23:17;;;;;;;3.10;0.85;;;6.10;99.90;;;;;;5025371;28;20038;-78
2022/01/05 12:26:07;;;;;;;5.25;1.40;;;6.50;99.90;;;;;;5025090;28;20030;-78
2022/01/05 12:28:37;;;;;;;16.52;1.67;;;6.80;99.90;;;;;;5028113;28;20033;-79
2022/01/05 12:31:04;;;;;;;5.70;0.85;;;7.10;99.90;;;;;;5025447;28;20109;-79
2022/01/05 12:33:43;;;;;;;6.47;1.13;;;7.20;99.90;;;;;;5026387;28;20089;-80
2022/01/05 12:36:09;;;;;;;4.63;1.45;;;6.80;99.90;;;;;;5024790;28;20029;-79
2022/01/05 12:38:47;;;;;;;1.85;0.85;;;6.50;99.90;;;;;;5024532;28;20483;-78
2022/01/05 12:41:24;;;;;;;5.15;0.68;;;6.00;99.90;;;;;;5025963;28;20105;-76
2022/01/05 12:43:50;;;;;;;4.75;1.13;;;5.60;99.90;;;;;;5024251;28;20030;-78
2022/01/05 12:46:42;;;;;;;9.07;1.35;;;5.40;99.90;;;;;;5020775;28;20030;-78
2022/01/05 12:49:17;;;;;;;15.63;1.13;;;5.10;99.90;;;;;;5023416;28;20092;-79
2022/01/05 12:51:44;;;;;;;;;;;5.10;99.90;;;;;;5031891;28;20065;-75
2022/01/05 12:54:26;;;;;;;3.75;0.75;;;5.10;99.90;;;;;;5004788;28;19964;-79
2022/01/05 12:56:52;;;;;;;17.65;2.08;;;5.10;99.90;;;;;;5011266;28;20058;-80
2022/01/05 12:59:30;;;;;;;10.75;1.38;;;5.20;99.90;;;;;;5003460;28;20395;-77
2022/01/05 13:02:07;;;;;;;7.82;2.30;;;5.10;99.90;;;;;;5017071;28;20795;-77